sensor_id;sensor_type;location;lat;lon;timestamp;temperature;humidity
7648;DHT22;3866;48.020;11.720;2022-09-02T00:01:14;12.10;99.90
7648;DHT22;3866;48.020;11.720;2022-09-02T00:03:41;12.00;99.90
7648;DHT22;3866;48.020;11.720;2022-09-02T00:06:09;12.00;99.90
7648;DHT22;3866;48.020;11.720;2022-09-02T00:08:37;11.90;99.90
7648;DHT22;3866;48.020;11.720;2022-09-02T00:11:05;11.90;99.90
7648;DHT22;3866;48.020;11.720;2022-09-02T00:13:33;11.90;99.90
7648;DHT22;3866;48.020;11.720;2022-09-02T00:16:01;11.90;99.90
7648;DHT22;3866;48.020;11.720;2022-09-02T00:18:30;11.80;99.90
7648;DHT22;3866;48.020;11.720;2022-09-02T00:20:58;11.70;99.90
7648;DHT22;3866;48.020;11.720;2022-09-02T00:23:25;11.80;99.90
7648;DHT22;3866;48.020;11.720;2022-09-02T00:25:52;12.00;99.90
7648;DHT22;3866;48.020;11.720;2022-09-02T00:28:18;12.10;99.90
7648;DHT22;3866;48.020;11.720;2022-09-02T00:30:46;12.00;99.90
7648;DHT22;3866;48.020;11.720;2022-09-02T00:33:13;11.90;99.90
7648;DHT22;3866;48.020;11.720;2022-09-02T00:35:42;11.80;99.90
7648;DHT22;3866;48.020;11.720;2022-09-02T00:38:10;11.70;99.90
7648;DHT22;3866;48.020;11.720;2022-09-02T00:40:38;11.70;99.90
7648;DHT22;3866;48.020;11.720;2022-09-02T00:43:08;11.60;99.90
7648;DHT22;3866;48.020;11.720;2022-09-02T00:45:36;11.50;99.90
7648;DHT22;3866;48.020;11.720;2022-09-02T00:48:03;11.60;99.90
7648;DHT22;3866;48.020;11.720;2022-09-02T00:50:34;11.60;99.90
7648;DHT22;3866;48.020;11.720;2022-09-02T00:53:05;11.60;99.90
7648;DHT22;3866;48.020;11.720;2022-09-02T00:55:36;11.60;99.90
7648;DHT22;3866;48.020;11.720;2022-09-02T00:58:06;11.70;99.90
7648;DHT22;3866;48.020;11.720;2022-09-02T01:00:37;11.70;99.90
7648;DHT22;3866;48.020;11.720;2022-09-02T01:03:08;11.60;99.90
7648;DHT22;3866;48.020;11.720;2022-09-02T01:05:39;11.60;99.90
7648;DHT22;3866;48.020;11.720;2022-09-02T01:08:12;11.50;99.90
7648;DHT22;3866;48.020;11.720;2022-09-02T01:10:39;11.50;99.90
7648;DHT22;3866;48.020;11.720;2022-09-02T01:13:09;11.50;99.90
7648;DHT22;3866;48.020;11.720;2022-09-02T01:15:39;11.50;99.90
7648;DHT22;3866;48.020;11.720;2022-09-02T01:18:09;11.40;99.90
7648;DHT22;3866;48.020;11.720;2022-09-02T01:20:38;11.60;99.90
7648;DHT22;3866;48.020;11.720;2022-09-02T01:23:06;11.60;99.90
7648;DHT22;3866;48.020;11.720;2022-09-02T01:25:34;11.70;99.90
7648;DHT22;3866;48.020;11.720;2022-09-02T01:28:03;11.60;99.90
7648;DHT22;3866;48.020;11.720;2022-09-02T01:30:31;11.60;99.90
7648;DHT22;3866;48.020;11.720;2022-09-02T01:32:58;11.40;99.90
7648;DHT22;3866;48.020;11.720;2022-09-02T01:35:25;11.40;99.90
7648;DHT22;3866;48.020;11.720;2022-09-02T01:37:54;11.40;99.90
7648;DHT22;3866;48.020;11.720;2022-09-02T01:40:25;11.40;99.90
7648;DHT22;3866;48.020;11.720;2022-09-02T01:42:55;11.20;99.90
7648;DHT22;3866;48.020;11.720;2022-09-02T01:45:22;11.10;99.90
7648;DHT22;3866;48.020;11.720;2022-09-02T01:47:49;11.00;99.90
7648;DHT22;3866;48.020;11.720;2022-09-02T01:50:17;11.10;99.90
7648;DHT22;3866;48.020;11.720;2022-09-02T01:52:44;11.20;99.90
7648;DHT22;3866;48.020;11.720;2022-09-02T01:55:12;11.20;99.90
7648;DHT22;3866;48.020;11.720;2022-09-02T01:57:40;11.10;99.90
7648;DHT22;3866;48.020;11.720;2022-09-02T02:00:08;11.10;99.90
7648;DHT22;3866;48.020;11.720;2022-09-02T02:02:36;11.00;99.90
7648;DHT22;3866;48.020;11.720;2022-09-02T02:05:03;10.90;99.90
7648;DHT22;3866;48.020;11.720;2022-09-02T02:07:30;10.90;99.90
7648;DHT22;3866;48.020;11.720;2022-09-02T02:09:57;11.00;99.90
7648;DHT22;3866;48.020;11.720;2022-09-02T02:12:25;10.90;99.90
7648;DHT22;3866;48.020;11.720;2022-09-02T02:14:53;10.80;99.90
7648;DHT22;3866;48.020;11.720;2022-09-02T02:17:20;10.70;99.90
7648;DHT22;3866;48.020;11.720;2022-09-02T02:19:47;10.70;99.90
7648;DHT22;3866;48.020;11.720;2022-09-02T02:22:14;10.70;99.90
7648;DHT22;3866;48.020;11.720;2022-09-02T02:24:41;10.70;99.90
7648;DHT22;3866;48.020;11.720;2022-09-02T02:27:08;10.70;99.90
7648;DHT22;3866;48.020;11.720;2022-09-02T02:29:36;10.70;99.90
7648;DHT22;3866;48.020;11.720;2022-09-02T02:32:04;10.70;99.90
7648;DHT22;3866;48.020;11.720;2022-09-02T02:34:32;10.70;99.90
7648;DHT22;3866;48.020;11.720;2022-09-02T02:36:59;10.70;99.90
7648;DHT22;3866;48.020;11.720;2022-09-02T02:39:26;10.70;99.90
7648;DHT22;3866;48.020;11.720;2022-09-02T02:41:53;10.60;99.90
7648;DHT22;3866;48.020;11.720;2022-09-02T02:44:20;10.70;99.90
7648;DHT22;3866;48.020;11.720;2022-09-02T02:46:48;10.80;99.90
7648;DHT22;3866;48.020;11.720;2022-09-02T02:49:16;10.70;99.90
7648;DHT22;3866;48.020;11.720;2022-09-02T02:51:43;10.80;99.90
7648;DHT22;3866;48.020;11.720;2022-09-02T02:54:10;10.70;99.90
7648;DHT22;3866;48.020;11.720;2022-09-02T02:56:39;10.70;99.90
7648;DHT22;3866;48.020;11.720;2022-09-02T02:59:06;10.70;99.90
7648;DHT22;3866;48.020;11.720;2022-09-02T03:01:33;10.60;99.90
7648;DHT22;3866;48.020;11.720;2022-09-02T03:04:00;10.50;99.90
7648;DHT22;3866;48.020;11.720;2022-09-02T03:06:29;10.60;99.90
7648;DHT22;3866;48.020;11.720;2022-09-02T03:08:56;10.50;99.90
7648;DHT22;3866;48.020;11.720;2022-09-02T03:11:25;10.40;99.90
7648;DHT22;3866;48.020;11.720;2022-09-02T03:13:52;10.30;99.90
7648;DHT22;3866;48.020;11.720;2022-09-02T03:16:19;10.20;99.90
7648;DHT22;3866;48.020;11.720;2022-09-02T03:18:47;10.20;99.90
7648;DHT22;3866;48.020;11.720;2022-09-02T03:21:14;10.10;99.90
7648;DHT22;3866;48.020;11.720;2022-09-02T03:23:42;10.00;99.90
7648;DHT22;3866;48.020;11.720;2022-09-02T03:26:10;10.00;99.90
7648;DHT22;3866;48.020;11.720;2022-09-02T03:28:38;9.90;99.90
7648;DHT22;3866;48.020;11.720;2022-09-02T03:31:06;10.00;99.90
7648;DHT22;3866;48.020;11.720;2022-09-02T03:33:33;10.00;99.90
7648;DHT22;3866;48.020;11.720;2022-09-02T03:36:00;10.10;99.90
7648;DHT22;3866;48.020;11.720;2022-09-02T03:38:27;10.10;99.90
7648;DHT22;3866;48.020;11.720;2022-09-02T03:40:55;10.10;99.90
7648;DHT22;3866;48.020;11.720;2022-09-02T03:43:22;10.10;99.90
7648;DHT22;3866;48.020;11.720;2022-09-02T03:45:49;10.00;99.90
7648;DHT22;3866;48.020;11.720;2022-09-02T03:48:16;10.00;99.90
7648;DHT22;3866;48.020;11.720;2022-09-02T03:50:44;10.00;99.90
7648;DHT22;3866;48.020;11.720;2022-09-02T03:53:12;10.00;99.90
7648;DHT22;3866;48.020;11.720;2022-09-02T03:55:40;9.90;99.90
7648;DHT22;3866;48.020;11.720;2022-09-02T03:58:09;10.00;99.90
7648;DHT22;3866;48.020;11.720;2022-09-02T04:00:36;10.00;99.90
7648;DHT22;3866;48.020;11.720;2022-09-02T04:03:04;9.90;99.90
7648;DHT22;3866;48.020;11.720;2022-09-02T04:05:31;9.90;99.90
7648;DHT22;3866;48.020;11.720;2022-09-02T04:07:58;9.80;99.90
7648;DHT22;3866;48.020;11.720;2022-09-02T04:10:25;9.80;99.90
7648;DHT22;3866;48.020;11.720;2022-09-02T04:12:52;9.70;99.90
7648;DHT22;3866;48.020;11.720;2022-09-02T04:15:21;9.80;99.90
7648;DHT22;3866;48.020;11.720;2022-09-02T04:21:19;9.70;99.90
7648;DHT22;3866;48.020;11.720;2022-09-02T04:23:46;9.70;99.90
7648;DHT22;3866;48.020;11.720;2022-09-02T04:26:15;9.60;99.90
7648;DHT22;3866;48.020;11.720;2022-09-02T04:28:43;9.60;99.90
7648;DHT22;3866;48.020;11.720;2022-09-02T04:31:13;9.60;99.90
7648;DHT22;3866;48.020;11.720;2022-09-02T04:33:40;9.60;99.90
7648;DHT22;3866;48.020;11.720;2022-09-02T04:36:09;9.60;99.90
7648;DHT22;3866;48.020;11.720;2022-09-02T04:38:36;9.60;99.90
7648;DHT22;3866;48.020;11.720;2022-09-02T04:41:06;9.60;99.90
7648;DHT22;3866;48.020;11.720;2022-09-02T04:43:33;9.60;99.90
7648;DHT22;3866;48.020;11.720;2022-09-02T04:46:02;9.70;99.90
7648;DHT22;3866;48.020;11.720;2022-09-02T04:48:30;9.80;99.90
7648;DHT22;3866;48.020;11.720;2022-09-02T04:51:02;9.80;99.90
7648;DHT22;3866;48.020;11.720;2022-09-02T04:53:29;9.80;99.90
7648;DHT22;3866;48.020;11.720;2022-09-02T04:55:56;9.80;99.90
7648;DHT22;3866;48.020;11.720;2022-09-02T04:58:23;9.80;99.90
7648;DHT22;3866;48.020;11.720;2022-09-02T05:00:50;9.90;99.90
7648;DHT22;3866;48.020;11.720;2022-09-02T05:03:17;9.90;99.90
7648;DHT22;3866;48.020;11.720;2022-09-02T05:05:46;9.90;99.90
7648;DHT22;3866;48.020;11.720;2022-09-02T05:08:13;9.80;99.90
7648;DHT22;3866;48.020;11.720;2022-09-02T05:10:43;9.90;99.90
7648;DHT22;3866;48.020;11.720;2022-09-02T05:13:15;9.90;99.90
7648;DHT22;3866;48.020;11.720;2022-09-02T05:15:42;10.00;99.90
7648;DHT22;3866;48.020;11.720;2022-09-02T05:18:09;10.10;99.90
7648;DHT22;3866;48.020;11.720;2022-09-02T05:20:37;10.10;99.90
7648;DHT22;3866;48.020;11.720;2022-09-02T05:23:05;10.10;99.90
7648;DHT22;3866;48.020;11.720;2022-09-02T05:25:33;10.10;99.90
7648;DHT22;3866;48.020;11.720;2022-09-02T05:28:00;10.20;99.90
7648;DHT22;3866;48.020;11.720;2022-09-02T05:30:26;10.20;99.90
7648;DHT22;3866;48.020;11.720;2022-09-02T05:32:53;10.30;99.90
7648;DHT22;3866;48.020;11.720;2022-09-02T05:35:20;10.40;99.90
7648;DHT22;3866;48.020;11.720;2022-09-02T05:37:47;10.70;99.90
7648;DHT22;3866;48.020;11.720;2022-09-02T05:40:15;10.70;99.90
7648;DHT22;3866;48.020;11.720;2022-09-02T05:42:42;10.80;99.90
7648;DHT22;3866;48.020;11.720;2022-09-02T05:45:10;11.00;99.90
7648;DHT22;3866;48.020;11.720;2022-09-02T05:47:37;11.10;99.90
7648;DHT22;3866;48.020;11.720;2022-09-02T05:50:05;11.30;99.90
7648;DHT22;3866;48.020;11.720;2022-09-02T05:52:32;11.40;99.90
7648;DHT22;3866;48.020;11.720;2022-09-02T05:54:59;11.40;99.90
7648;DHT22;3866;48.020;11.720;2022-09-02T05:57:28;11.50;99.90
7648;DHT22;3866;48.020;11.720;2022-09-02T05:59:55;11.40;99.90
7648;DHT22;3866;48.020;11.720;2022-09-02T06:02:23;11.40;99.90
7648;DHT22;3866;48.020;11.720;2022-09-02T06:04:52;11.60;99.90
7648;DHT22;3866;48.020;11.720;2022-09-02T06:07:21;11.60;99.90
7648;DHT22;3866;48.020;11.720;2022-09-02T06:09:48;11.60;99.90
7648;DHT22;3866;48.020;11.720;2022-09-02T06:12:16;11.70;99.90
7648;DHT22;3866;48.020;11.720;2022-09-02T06:14:46;11.80;99.90
7648;DHT22;3866;48.020;11.720;2022-09-02T06:17:13;12.00;99.90
7648;DHT22;3866;48.020;11.720;2022-09-02T06:19:40;12.30;99.90
7648;DHT22;3866;48.020;11.720;2022-09-02T06:22:07;12.60;99.90
7648;DHT22;3866;48.020;11.720;2022-09-02T06:24:34;13.50;99.90
7648;DHT22;3866;48.020;11.720;2022-09-02T06:27:01;14.90;99.90
7648;DHT22;3866;48.020;11.720;2022-09-02T06:29:28;15.70;99.90
7648;DHT22;3866;48.020;11.720;2022-09-02T06:31:57;16.70;99.90
7648;DHT22;3866;48.020;11.720;2022-09-02T06:34:24;17.20;99.90
7648;DHT22;3866;48.020;11.720;2022-09-02T06:36:52;17.90;99.90
7648;DHT22;3866;48.020;11.720;2022-09-02T06:39:21;19.20;99.90
7648;DHT22;3866;48.020;11.720;2022-09-02T06:41:48;20.10;99.90
7648;DHT22;3866;48.020;11.720;2022-09-02T06:44:17;21.30;99.90
7648;DHT22;3866;48.020;11.720;2022-09-02T06:46:48;21.70;99.90
7648;DHT22;3866;48.020;11.720;2022-09-02T06:49:19;22.80;99.90
7648;DHT22;3866;48.020;11.720;2022-09-02T06:51:48;22.20;99.90
7648;DHT22;3866;48.020;11.720;2022-09-02T06:54:16;21.80;99.90
7648;DHT22;3866;48.020;11.720;2022-09-02T06:56:44;22.60;99.90
7648;DHT22;3866;48.020;11.720;2022-09-02T06:59:11;23.50;99.90
7648;DHT22;3866;48.020;11.720;2022-09-02T07:01:38;24.20;99.90
7648;DHT22;3866;48.020;11.720;2022-09-02T07:04:05;23.10;99.90
7648;DHT22;3866;48.020;11.720;2022-09-02T07:06:52;22.90;99.90
7648;DHT22;3866;48.020;11.720;2022-09-02T07:09:22;22.90;99.90
7648;DHT22;3866;48.020;11.720;2022-09-02T07:11:49;24.50;99.90
7648;DHT22;3866;48.020;11.720;2022-09-02T07:14:19;23.30;99.90
7648;DHT22;3866;48.020;11.720;2022-09-02T07:16:48;22.70;99.90
7648;DHT22;3866;48.020;11.720;2022-09-02T07:19:16;22.30;99.90
7648;DHT22;3866;48.020;11.720;2022-09-02T07:21:44;21.40;99.90
7648;DHT22;3866;48.020;11.720;2022-09-02T07:24:13;21.30;99.90
7648;DHT22;3866;48.020;11.720;2022-09-02T07:26:40;20.50;99.90
7648;DHT22;3866;48.020;11.720;2022-09-02T07:29:08;19.80;99.90
7648;DHT22;3866;48.020;11.720;2022-09-02T07:31:35;19.80;99.90
7648;DHT22;3866;48.020;11.720;2022-09-02T07:34:03;20.00;99.90
7648;DHT22;3866;48.020;11.720;2022-09-02T07:36:31;20.00;99.90
7648;DHT22;3866;48.020;11.720;2022-09-02T07:38:59;20.00;99.90
7648;DHT22;3866;48.020;11.720;2022-09-02T07:41:28;19.80;99.90
7648;DHT22;3866;48.020;11.720;2022-09-02T07:43:55;20.40;99.90
7648;DHT22;3866;48.020;11.720;2022-09-02T07:46:22;19.70;99.90
7648;DHT22;3866;48.020;11.720;2022-09-02T07:48:49;20.50;99.90
7648;DHT22;3866;48.020;11.720;2022-09-02T07:51:16;21.20;99.90
7648;DHT22;3866;48.020;11.720;2022-09-02T07:53:43;21.60;99.90
7648;DHT22;3866;48.020;11.720;2022-09-02T07:56:11;22.10;99.90
7648;DHT22;3866;48.020;11.720;2022-09-02T07:58:41;22.40;99.90
7648;DHT22;3866;48.020;11.720;2022-09-02T08:01:08;22.40;99.90
7648;DHT22;3866;48.020;11.720;2022-09-02T08:03:37;23.70;99.90
7648;DHT22;3866;48.020;11.720;2022-09-02T08:06:05;22.70;99.90
7648;DHT22;3866;48.020;11.720;2022-09-02T08:08:32;22.20;99.90
7648;DHT22;3866;48.020;11.720;2022-09-02T08:10:59;22.70;99.90
7648;DHT22;3866;48.020;11.720;2022-09-02T08:13:26;22.40;99.90
7648;DHT22;3866;48.020;11.720;2022-09-02T08:15:55;23.60;99.90
7648;DHT22;3866;48.020;11.720;2022-09-02T08:18:22;23.80;99.90
7648;DHT22;3866;48.020;11.720;2022-09-02T08:20:49;23.80;99.90
7648;DHT22;3866;48.020;11.720;2022-09-02T08:23:16;23.70;99.90
7648;DHT22;3866;48.020;11.720;2022-09-02T08:25:43;22.70;99.90
7648;DHT22;3866;48.020;11.720;2022-09-02T08:28:10;21.80;99.90
7648;DHT22;3866;48.020;11.720;2022-09-02T08:30:37;22.90;99.90
7648;DHT22;3866;48.020;11.720;2022-09-02T08:33:06;22.70;99.90
7648;DHT22;3866;48.020;11.720;2022-09-02T08:35:33;22.60;99.90
7648;DHT22;3866;48.020;11.720;2022-09-02T08:38:00;21.40;99.90
7648;DHT22;3866;48.020;11.720;2022-09-02T08:40:32;21.40;99.90
7648;DHT22;3866;48.020;11.720;2022-09-02T08:43:01;19.90;99.90
7648;DHT22;3866;48.020;11.720;2022-09-02T08:45:32;19.50;99.90
7648;DHT22;3866;48.020;11.720;2022-09-02T08:48:06;18.90;99.90
7648;DHT22;3866;48.020;11.720;2022-09-02T08:50:36;18.90;99.90
7648;DHT22;3866;48.020;11.720;2022-09-02T08:53:09;19.00;99.90
7648;DHT22;3866;48.020;11.720;2022-09-02T08:55:41;18.40;99.90
7648;DHT22;3866;48.020;11.720;2022-09-02T08:58:12;18.40;99.90
7648;DHT22;3866;48.020;11.720;2022-09-02T09:00:47;18.30;99.90
7648;DHT22;3866;48.020;11.720;2022-09-02T09:03:23;17.90;99.90
7648;DHT22;3866;48.020;11.720;2022-09-02T09:05:56;17.80;99.90
7648;DHT22;3866;48.020;11.720;2022-09-02T09:08:32;17.60;99.90
7648;DHT22;3866;48.020;11.720;2022-09-02T09:11:03;17.90;99.90
7648;DHT22;3866;48.020;11.720;2022-09-02T09:13:55;18.20;99.90
7648;DHT22;3866;48.020;11.720;2022-09-02T09:16:37;17.80;99.90
7648;DHT22;3866;48.020;11.720;2022-09-02T09:19:11;18.20;99.90
7648;DHT22;3866;48.020;11.720;2022-09-02T09:21:38;18.40;99.90
7648;DHT22;3866;48.020;11.720;2022-09-02T09:24:09;18.60;99.90
7648;DHT22;3866;48.020;11.720;2022-09-02T09:26:40;18.50;99.90
7648;DHT22;3866;48.020;11.720;2022-09-02T09:29:07;18.70;99.90
7648;DHT22;3866;48.020;11.720;2022-09-02T09:31:35;18.70;99.90
7648;DHT22;3866;48.020;11.720;2022-09-02T09:34:04;18.50;99.90
7648;DHT22;3866;48.020;11.720;2022-09-02T09:36:48;18.00;99.90
7648;DHT22;3866;48.020;11.720;2022-09-02T09:39:20;18.20;99.90
7648;DHT22;3866;48.020;11.720;2022-09-02T09:41:48;18.30;99.90
7648;DHT22;3866;48.020;11.720;2022-09-02T09:44:35;18.30;99.90
7648;DHT22;3866;48.020;11.720;2022-09-02T09:47:04;18.00;99.90
7648;DHT22;3866;48.020;11.720;2022-09-02T09:49:32;17.90;99.90
7648;DHT22;3866;48.020;11.720;2022-09-02T09:52:01;18.20;99.90
7648;DHT22;3866;48.020;11.720;2022-09-02T09:54:28;18.00;99.90
7648;DHT22;3866;48.020;11.720;2022-09-02T09:56:56;18.10;99.90
7648;DHT22;3866;48.020;11.720;2022-09-02T09:59:41;18.30;99.90
7648;DHT22;3866;48.020;11.720;2022-09-02T10:02:17;18.10;99.90
7648;DHT22;3866;48.020;11.720;2022-09-02T10:04:45;18.30;99.90
7648;DHT22;3866;48.020;11.720;2022-09-02T10:07:13;18.10;99.90
7648;DHT22;3866;48.020;11.720;2022-09-02T10:09:40;18.10;99.90
7648;DHT22;3866;48.020;11.720;2022-09-02T10:12:10;18.30;99.90
7648;DHT22;3866;48.020;11.720;2022-09-02T10:14:38;18.60;99.90
7648;DHT22;3866;48.020;11.720;2022-09-02T10:17:26;18.50;99.90
7648;DHT22;3866;48.020;11.720;2022-09-02T10:20:02;18.70;99.90
7648;DHT22;3866;48.020;11.720;2022-09-02T10:22:58;18.70;99.90
7648;DHT22;3866;48.020;11.720;2022-09-02T10:25:33;18.30;99.90
7648;DHT22;3866;48.020;11.720;2022-09-02T10:28:11;18.20;99.90
7648;DHT22;3866;48.020;11.720;2022-09-02T10:30:43;18.60;99.90
7648;DHT22;3866;48.020;11.720;2022-09-02T10:33:33;18.40;99.90
7648;DHT22;3866;48.020;11.720;2022-09-02T10:36:07;18.60;99.90
7648;DHT22;3866;48.020;11.720;2022-09-02T10:38:40;18.50;99.90
7648;DHT22;3866;48.020;11.720;2022-09-02T10:46:55;18.80;99.90
7648;DHT22;3866;48.020;11.720;2022-09-02T10:49:44;18.60;99.90
7648;DHT22;3866;48.020;11.720;2022-09-02T10:52:30;18.50;99.90
7648;DHT22;3866;48.020;11.720;2022-09-02T10:55:06;18.40;99.90
7648;DHT22;3866;48.020;11.720;2022-09-02T10:57:40;18.60;99.90
7648;DHT22;3866;48.020;11.720;2022-09-02T11:00:14;18.90;99.90
7648;DHT22;3866;48.020;11.720;2022-09-02T11:02:46;18.90;99.90
7648;DHT22;3866;48.020;11.720;2022-09-02T11:05:16;19.00;99.90
7648;DHT22;3866;48.020;11.720;2022-09-02T11:07:50;19.10;99.90
7648;DHT22;3866;48.020;11.720;2022-09-02T11:10:22;19.10;99.90
7648;DHT22;3866;48.020;11.720;2022-09-02T11:12:56;19.20;99.90
7648;DHT22;3866;48.020;11.720;2022-09-02T11:15:34;19.20;99.90
7648;DHT22;3866;48.020;11.720;2022-09-02T11:18:10;19.20;99.90
7648;DHT22;3866;48.020;11.720;2022-09-02T11:20:42;19.10;99.90
7648;DHT22;3866;48.020;11.720;2022-09-02T11:23:17;19.00;99.90
7648;DHT22;3866;48.020;11.720;2022-09-02T11:25:51;19.00;99.90
7648;DHT22;3866;48.020;11.720;2022-09-02T11:28:30;19.10;99.90
7648;DHT22;3866;48.020;11.720;2022-09-02T11:31:03;19.50;99.90
7648;DHT22;3866;48.020;11.720;2022-09-02T11:33:42;19.50;99.90
7648;DHT22;3866;48.020;11.720;2022-09-02T11:36:11;19.50;99.90
7648;DHT22;3866;48.020;11.720;2022-09-02T11:38:42;19.50;99.90
7648;DHT22;3866;48.020;11.720;2022-09-02T11:41:40;19.40;99.90
7648;DHT22;3866;48.020;11.720;2022-09-02T11:47:38;19.50;99.90
7648;DHT22;3866;48.020;11.720;2022-09-02T11:50:32;19.40;99.90
7648;DHT22;3866;48.020;11.720;2022-09-02T11:53:17;19.20;99.90
7648;DHT22;3866;48.020;11.720;2022-09-02T11:55:47;19.30;99.90
7648;DHT22;3866;48.020;11.720;2022-09-02T11:58:32;19.60;99.90
7648;DHT22;3866;48.020;11.720;2022-09-02T12:01:05;19.80;99.90
7648;DHT22;3866;48.020;11.720;2022-09-02T12:03:43;19.90;99.90
7648;DHT22;3866;48.020;11.720;2022-09-02T12:06:13;20.20;99.90
7648;DHT22;3866;48.020;11.720;2022-09-02T12:09:08;20.20;99.90
7648;DHT22;3866;48.020;11.720;2022-09-02T12:11:48;20.60;99.90
7648;DHT22;3866;48.020;11.720;2022-09-02T12:24:01;22.30;99.90
7648;DHT22;3866;48.020;11.720;2022-09-02T12:26:29;22.70;99.90
7648;DHT22;3866;48.020;11.720;2022-09-02T12:29:30;23.50;99.90
7648;DHT22;3866;48.020;11.720;2022-09-02T12:31:58;22.90;99.90
7648;DHT22;3866;48.020;11.720;2022-09-02T12:34:59;23.30;99.90
7648;DHT22;3866;48.020;11.720;2022-09-02T12:37:55;23.90;99.90
7648;DHT22;3866;48.020;11.720;2022-09-02T12:40:32;24.20;99.90
7648;DHT22;3866;48.020;11.720;2022-09-02T12:43:03;24.40;99.90
7648;DHT22;3866;48.020;11.720;2022-09-02T12:45:33;24.30;99.90
7648;DHT22;3866;48.020;11.720;2022-09-02T12:48:11;24.30;99.90
7648;DHT22;3866;48.020;11.720;2022-09-02T12:50:54;23.60;99.90
7648;DHT22;3866;48.020;11.720;2022-09-02T12:53:31;24.60;99.90
7648;DHT22;3866;48.020;11.720;2022-09-02T12:56:00;23.90;99.90
7648;DHT22;3866;48.020;11.720;2022-09-02T12:58:32;23.40;99.90
7648;DHT22;3866;48.020;11.720;2022-09-02T13:01:12;23.30;99.90
7648;DHT22;3866;48.020;11.720;2022-09-02T13:04:02;23.50;99.90
7648;DHT22;3866;48.020;11.720;2022-09-02T13:06:51;23.10;99.90
7648;DHT22;3866;48.020;11.720;2022-09-02T13:09:51;23.10;99.90
7648;DHT22;3866;48.020;11.720;2022-09-02T13:12:48;22.50;99.90
7648;DHT22;3866;48.020;11.720;2022-09-02T13:15:47;21.80;99.90
7648;DHT22;3866;48.020;11.720;2022-09-02T13:21:53;21.50;99.90
7648;DHT22;3866;48.020;11.720;2022-09-02T13:28:01;21.90;99.90
7648;DHT22;3866;48.020;11.720;2022-09-02T13:30:50;22.20;99.90
7648;DHT22;3866;48.020;11.720;2022-09-02T13:33:21;22.00;99.90
7648;DHT22;3866;48.020;11.720;2022-09-02T13:35:53;21.70;99.90
7648;DHT22;3866;48.020;11.720;2022-09-02T13:38:24;21.30;99.90
7648;DHT22;3866;48.020;11.720;2022-09-02T13:40:51;21.40;99.90
7648;DHT22;3866;48.020;11.720;2022-09-02T13:43:21;21.80;99.90
7648;DHT22;3866;48.020;11.720;2022-09-02T13:45:50;21.70;99.90
7648;DHT22;3866;48.020;11.720;2022-09-02T13:48:19;21.90;99.90
7648;DHT22;3866;48.020;11.720;2022-09-02T13:50:48;21.70;99.90
7648;DHT22;3866;48.020;11.720;2022-09-02T13:53:23;21.20;99.90
7648;DHT22;3866;48.020;11.720;2022-09-02T13:55:53;21.40;99.90
7648;DHT22;3866;48.020;11.720;2022-09-02T13:58:31;21.60;99.90
7648;DHT22;3866;48.020;11.720;2022-09-02T14:01:21;21.70;99.90
7648;DHT22;3866;48.020;11.720;2022-09-02T14:03:49;21.90;99.90
7648;DHT22;3866;48.020;11.720;2022-09-02T14:06:19;21.90;99.90
7648;DHT22;3866;48.020;11.720;2022-09-02T14:08:50;22.10;99.90
7648;DHT22;3866;48.020;11.720;2022-09-02T14:11:18;22.00;99.90
7648;DHT22;3866;48.020;11.720;2022-09-02T14:13:47;22.10;99.90
7648;DHT22;3866;48.020;11.720;2022-09-02T14:16:29;21.90;99.90
7648;DHT22;3866;48.020;11.720;2022-09-02T14:19:09;21.60;99.90
7648;DHT22;3866;48.020;11.720;2022-09-02T14:21:44;21.30;99.90
7648;DHT22;3866;48.020;11.720;2022-09-02T14:24:15;21.50;99.90
7648;DHT22;3866;48.020;11.720;2022-09-02T14:26:45;21.70;99.90
7648;DHT22;3866;48.020;11.720;2022-09-02T14:29:14;21.30;99.90
7648;DHT22;3866;48.020;11.720;2022-09-02T14:31:42;21.30;99.90
7648;DHT22;3866;48.020;11.720;2022-09-02T14:34:32;21.30;99.90
7648;DHT22;3866;48.020;11.720;2022-09-02T14:36:59;21.50;99.90
7648;DHT22;3866;48.020;11.720;2022-09-02T14:39:28;21.70;99.90
7648;DHT22;3866;48.020;11.720;2022-09-02T14:41:55;21.40;99.90
7648;DHT22;3866;48.020;11.720;2022-09-02T14:44:24;21.20;99.90
7648;DHT22;3866;48.020;11.720;2022-09-02T14:46:55;21.30;99.90
7648;DHT22;3866;48.020;11.720;2022-09-02T14:49:26;21.50;99.90
7648;DHT22;3866;48.020;11.720;2022-09-02T14:51:55;21.60;99.90
7648;DHT22;3866;48.020;11.720;2022-09-02T14:54:37;21.80;99.90
7648;DHT22;3866;48.020;11.720;2022-09-02T14:57:05;21.80;99.90
7648;DHT22;3866;48.020;11.720;2022-09-02T14:59:44;21.60;99.90
7648;DHT22;3866;48.020;11.720;2022-09-02T15:02:21;21.60;99.90
7648;DHT22;3866;48.020;11.720;2022-09-02T15:04:48;21.50;99.90
7648;DHT22;3866;48.020;11.720;2022-09-02T15:07:15;21.60;99.90
7648;DHT22;3866;48.020;11.720;2022-09-02T15:09:43;21.60;99.90
7648;DHT22;3866;48.020;11.720;2022-09-02T15:12:11;21.70;99.90
7648;DHT22;3866;48.020;11.720;2022-09-02T15:14:38;21.60;99.90
7648;DHT22;3866;48.020;11.720;2022-09-02T15:17:08;21.50;99.90
7648;DHT22;3866;48.020;11.720;2022-09-02T15:19:35;21.50;99.90
7648;DHT22;3866;48.020;11.720;2022-09-02T15:22:02;21.30;99.90
7648;DHT22;3866;48.020;11.720;2022-09-02T15:24:29;20.90;99.90
7648;DHT22;3866;48.020;11.720;2022-09-02T15:26:58;20.70;99.90
7648;DHT22;3866;48.020;11.720;2022-09-02T15:29:25;20.80;99.90
7648;DHT22;3866;48.020;11.720;2022-09-02T15:31:52;20.80;99.90
7648;DHT22;3866;48.020;11.720;2022-09-02T15:34:20;20.90;99.90
7648;DHT22;3866;48.020;11.720;2022-09-02T15:36:47;21.10;99.90
7648;DHT22;3866;48.020;11.720;2022-09-02T15:39:14;21.00;99.90
7648;DHT22;3866;48.020;11.720;2022-09-02T15:41:42;20.90;99.90
7648;DHT22;3866;48.020;11.720;2022-09-02T15:44:11;20.80;99.90
7648;DHT22;3866;48.020;11.720;2022-09-02T15:46:38;20.80;99.90
7648;DHT22;3866;48.020;11.720;2022-09-02T15:49:07;20.80;99.90
7648;DHT22;3866;48.020;11.720;2022-09-02T15:51:35;20.80;99.90
7648;DHT22;3866;48.020;11.720;2022-09-02T15:54:05;20.80;99.90
7648;DHT22;3866;48.020;11.720;2022-09-02T15:56:34;20.80;99.90
7648;DHT22;3866;48.020;11.720;2022-09-02T15:59:04;20.80;99.90
7648;DHT22;3866;48.020;11.720;2022-09-02T16:01:36;20.90;99.90
7648;DHT22;3866;48.020;11.720;2022-09-02T16:04:05;20.60;99.90
7648;DHT22;3866;48.020;11.720;2022-09-02T16:06:34;20.60;99.90
7648;DHT22;3866;48.020;11.720;2022-09-02T16:09:04;20.70;99.90
7648;DHT22;3866;48.020;11.720;2022-09-02T16:11:31;20.70;99.90
7648;DHT22;3866;48.020;11.720;2022-09-02T16:13:58;20.70;99.90
7648;DHT22;3866;48.020;11.720;2022-09-02T16:16:25;20.50;99.90
7648;DHT22;3866;48.020;11.720;2022-09-02T16:18:53;20.40;99.90
7648;DHT22;3866;48.020;11.720;2022-09-02T16:21:21;20.50;99.90
7648;DHT22;3866;48.020;11.720;2022-09-02T16:23:48;20.50;99.90
7648;DHT22;3866;48.020;11.720;2022-09-02T16:26:21;20.30;99.90
7648;DHT22;3866;48.020;11.720;2022-09-02T16:28:49;20.40;99.90
7648;DHT22;3866;48.020;11.720;2022-09-02T16:31:17;20.40;99.90
7648;DHT22;3866;48.020;11.720;2022-09-02T16:33:50;20.40;99.90
7648;DHT22;3866;48.020;11.720;2022-09-02T16:36:19;20.40;99.90
7648;DHT22;3866;48.020;11.720;2022-09-02T16:38:46;20.30;99.90